Turnersburg, North Carolina
Current Conditions -  °F | °C
As of 4:15 PM on Thursday 25 Dec 2014 (Local Time) from KSVH Reporting Station
Clear Clear  
Wind Chill: 52°   Ceiling: Unl
Heat Index: 52°   Visibility: 10mi
Dew Point: 32°   Wind: 0mph
Humidity: 46%   Direction: NA
Pressure: 30.12"   Gusts: NA
Location:  35.91°N, 80.81°W
Report Text: KSVH 252115Z AUTO 00000KT 10SM CLR 11/00 A3012 RMK AO2 T01130000
Loading
Personal Weather Stations






























Interactive Weather Map New forecast layout! Learn more

10-Day Weather Forecast

Advertisements
Track Severe Weather on mobile